Time;durP1;ratioP1;P1;durP2;ratioP2;P2;SDS_P1;SDS_P2;PMS_P1;PMS_P2;Temp;Humidity;BMP_temperature;BMP_pressure;BME280_temperature;BME280_humidity;BME280_pressure;Samples;Min_cycle;Max_cycle;Signal;HPM_P1;HPM_P2
2023/10/09 00:00:50;;;;;;;2.27;0.70;;;;;;;13.87;45.50;99946.38;6151279;23;19996;-95
2023/10/09 00:03:22;;;;;;;2.70;1.38;;;;;;;13.86;45.34;99952.06;6155442;23;20340;-93
2023/10/09 00:05:49;;;;;;;2.60;0.68;;;;;;;13.83;45.35;99955.31;6147379;23;20004;-93
2023/10/09 00:08:21;;;;;;;5.80;0.93;;;;;;;13.86;44.83;99963.72;6146440;23;20008;-93
2023/10/09 00:10:57;;;;;;;5.85;0.80;;;;;;;13.73;44.93;99940.72;6147369;23;20005;-93
2023/10/09 00:13:32;;;;;;;1.25;0.80;;;;;;;13.86;44.52;99955.59;6148654;23;20001;-92
2023/10/09 00:16:08;;;;;;;2.10;0.70;;;;;;;13.75;43.28;99949.38;6149400;23;20000;-94
2023/10/09 00:18:34;;;;;;;1.25;0.60;;;;;;;13.86;42.73;99960.16;6147105;23;20005;-93
2023/10/09 00:21:12;;;;;;;2.30;0.70;;;;;;;13.63;42.04;99943.44;6146336;23;20432;-94
2023/10/09 00:23:39;;;;;;;1.65;0.70;;;;;;;13.59;41.99;99955.91;6150152;23;20416;-93
2023/10/09 00:26:16;;;;;;;1.58;0.60;;;;;;;13.71;41.85;99969.16;6144563;23;20001;-94
2023/10/09 00:28:43;;;;;;;4.18;0.77;;;;;;;13.57;40.90;99963.47;6147358;23;20059;-94
2023/10/09 00:31:14;;;;;;;3.63;0.75;;;;;;;13.42;40.80;99955.41;6146623;23;20004;-94
2023/10/09 00:33:41;;;;;;;2.00;0.82;;;;;;;13.64;40.36;99995.69;6147770;23;20008;-94
2023/10/09 00:36:10;;;;;;;2.03;0.80;;;;;;;13.54;40.27;99996.50;6169201;23;20062;-94
2023/10/09 00:38:45;;;;;;;3.25;0.70;;;;;;;13.29;40.64;99962.19;6145177;23;19992;-93
2023/10/09 00:41:19;;;;;;;1.98;0.70;;;;;;;13.39;40.75;99977.59;6148265;23;20435;-94
2023/10/09 00:43:44;;;;;;;2.55;0.90;;;;;;;13.30;40.66;99970.03;6146626;23;19997;-93
2023/10/09 00:46:23;;;;;;;3.50;0.90;;;;;;;13.30;40.73;99969.22;6144321;23;20001;-93
2023/10/09 00:49:01;;;;;;;1.67;0.80;;;;;;;13.46;40.35;99981.63;6150099;23;20075;-92
2023/10/09 00:51:27;;;;;;;1.40;0.70;;;;;;;13.58;40.06;99994.09;6145869;23;19992;-93
2023/10/09 00:56:57;;;;;;;1.98;0.73;;;;;;;13.35;40.04;99974.63;6163521;23;20003;-93
2023/10/09 00:59:24;;;;;;;2.08;1.40;;;;;;;13.52;40.15;100002.19;6147543;23;20000;-94
2023/10/09 01:02:09;;;;;;;1.55;0.70;;;;;;;13.45;40.40;99996.25;6144387;23;20072;-95
2023/10/09 01:04:37;;;;;;;1.05;0.57;;;;;;;13.37;40.62;99999.50;6151900;23;19996;-93
2023/10/09 01:07:10;;;;;;;3.88;0.90;;;;;;;13.41;40.13;100008.72;6145334;23;20028;-93
2023/10/09 01:09:42;;;;;;;1.65;0.90;;;;;;;13.34;40.73;100016.25;6148677;23;19985;-94
2023/10/09 01:12:16;;;;;;;1.70;0.75;;;;;;;13.18;40.87;100012.75;6149000;23;19992;-93
2023/10/09 01:14:44;;;;;;;6.43;0.77;;;;;;;13.39;40.51;100032.50;6148956;23;20431;-94
2023/10/09 01:17:11;;;;;;;2.03;0.95;;;;;;;13.46;40.53;100029.53;6148148;23;20375;-94
2023/10/09 01:19:37;;;;;;;3.85;0.90;;;;;;;13.53;40.27;100039.00;6148126;23;20051;-93
2023/10/09 01:22:12;;;;;;;0.95;0.75;;;;;;;13.54;40.36;100032.50;6147619;23;20017;-94
2023/10/09 01:24:41;;;;;;;1.35;0.70;;;;;;;13.65;40.15;100035.19;6149844;23;20004;-95
2023/10/09 01:27:16;;;;;;;1.52;0.80;;;;;;;13.65;40.37;100032.47;6172241;23;20008;-93
2023/10/09 01:29:42;;;;;;;1.80;0.90;;;;;;;13.52;40.45;100037.38;6150744;23;20001;-94
2023/10/09 01:32:16;;;;;;;3.20;1.00;;;;;;;13.63;40.22;100040.06;6145452;23;20008;-95
2023/10/09 01:34:41;;;;;;;2.05;0.93;;;;;;;13.67;40.41;100060.09;6150702;23;20347;-93
2023/10/09 01:37:15;;;;;;;1.58;0.80;;;;;;;13.62;40.45;100058.19;6145717;23;20024;-94
2023/10/09 01:39:41;;;;;;;3.60;0.80;;;;;;;13.63;40.66;100067.94;6146640;23;20001;-94
2023/10/09 01:42:07;;;;;;;2.42;0.70;;;;;;;13.57;40.58;100055.47;6146419;23;20022;-94
2023/10/09 01:44:35;;;;;;;1.92;0.82;;;;;;;13.60;40.83;100073.09;6147533;23;20404;-93
2023/10/09 01:47:07;;;;;;;1.10;0.70;;;;;;;13.60;41.20;100065.78;6147517;23;20009;-94
2023/10/09 01:49:37;;;;;;;2.05;0.73;;;;;;;13.41;41.33;100060.09;6147795;23;20039;-94
2023/10/09 01:52:09;;;;;;;3.10;0.90;;;;;;;13.58;41.07;100065.25;6146972;23;20050;-94
2023/10/09 01:54:37;;;;;;;1.90;0.90;;;;;;;13.56;41.19;100070.09;6195251;23;20087;-92
2023/10/09 01:57:21;;;;;;;3.20;0.98;;;;;;;13.57;40.78;100090.66;6171105;23;20020;-93
2023/10/09 01:59:49;;;;;;;1.80;1.08;;;;;;;13.46;41.15;100084.44;6153058;23;20175;-94
2023/10/09 02:02:31;;;;;;;3.05;0.82;;;;;;;13.64;40.97;100095.81;6146100;23;20351;-94
2023/10/09 02:05:22;;;;;;;6.18;0.95;;;;;;;13.71;40.83;100105.28;6151980;23;20054;-94
2023/10/09 02:07:51;;;;;;;1.38;0.75;;;;;;;13.66;40.66;100099.88;6173063;23;20012;-93
2023/10/09 02:13:16;;;;;;;2.35;0.77;;;;;;;13.63;40.90;100086.88;6175902;23;20015;-94
2023/10/09 02:23:30;;;;;;;2.17;0.80;;;;;;;13.82;40.24;100094.44;6173405;23;20016;-93
2023/10/09 02:26:02;;;;;;;2.10;0.80;;;;;;;13.75;40.14;100092.00;6148028;23;20011;-93
2023/10/09 02:28:32;;;;;;;2.67;0.90;;;;;;;13.76;39.96;100085.53;6146975;23;20066;-95
2023/10/09 02:31:00;;;;;;;2.60;1.05;;;;;;;13.70;39.87;100070.38;6146891;23;20091;-94
2023/10/09 02:33:30;;;;;;;2.80;0.98;;;;;;;13.77;39.76;100086.34;6146301;23;20027;-95
2023/10/09 02:35:59;;;;;;;2.08;0.88;;;;;;;13.87;39.75;100089.03;6146780;23;20004;-94
2023/10/09 02:38:26;;;;;;;3.63;1.00;;;;;;;14.01;39.46;100110.94;6170019;23;20001;-92
2023/10/09 02:43:40;;;;;;;1.30;0.80;;;;;;;14.04;39.62;100126.66;6174702;23;20091;-95
2023/10/09 02:46:13;;;;;;;2.03;0.90;;;;;;;13.76;39.46;100088.25;6174626;23;20000;-94
2023/10/09 02:48:47;;;;;;;2.47;0.75;;;;;;;13.93;39.41;100117.72;6172099;23;20083;-94
2023/10/09 02:51:30;;;;;;;1.13;0.82;;;;;;;13.92;39.57;100119.63;6148982;23;20000;-95
2023/10/09 02:54:07;;;;;;;3.47;1.10;;;;;;;13.76;39.86;100120.72;6151465;23;20089;-94
2023/10/09 02:56:37;;;;;;;1.50;0.60;;;;;;;13.74;39.69;100107.44;6147885;23;19980;-93
2023/10/09 02:59:07;;;;;;;2.35;1.00;;;;;;;13.76;39.98;100109.91;6146581;23;20335;-91
2023/10/09 03:01:37;;;;;;;1.90;1.00;;;;;;;13.87;39.76;100121.53;6145634;23;19996;-92
2023/10/09 03:04:06;;;;;;;2.38;1.10;;;;;;;13.75;39.84;100116.38;6169727;23;20058;-94
2023/10/09 03:06:34;;;;;;;1.75;0.73;;;;;;;13.73;40.03;100129.38;6143607;23;20087;-94
2023/10/09 03:09:16;;;;;;;2.05;1.20;;;;;;;13.72;39.67;100147.50;6145023;23;20443;-94
2023/10/09 03:11:44;;;;;;;2.15;0.95;;;;;;;13.57;39.86;100116.91;6172105;23;19996;-93
2023/10/09 03:14:11;;;;;;;1.92;1.05;;;;;;;13.46;39.89;100113.38;6143383;23;20020;-93
2023/10/09 03:16:38;;;;;;;7.00;1.33;;;;;;;13.47;39.93;100113.13;6145875;23;20000;-93
2023/10/09 03:19:03;;;;;;;3.92;0.82;;;;;;;13.49;39.68;100102.03;6144845;23;20001;-91
2023/10/09 03:21:29;;;;;;;1.30;0.80;;;;;;;13.49;39.93;100112.88;6145842;23;20023;-94
2023/10/09 03:23:56;;;;;;;2.63;1.13;;;;;;;13.55;39.77;100106.38;6145716;23;20000;-93
2023/10/09 03:26:25;;;;;;;2.80;1.10;;;;;;;13.60;40.09;100130.72;6145774;23;20004;-94
2023/10/09 03:28:53;;;;;;;2.38;0.90;;;;;;;13.51;40.02;100108.81;6146817;23;20004;-93
2023/10/09 03:31:19;;;;;;;3.38;0.90;;;;;;;13.50;40.17;100114.47;6144473;23;20000;-95
2023/10/09 03:33:44;;;;;;;2.55;0.82;;;;;;;13.42;39.99;100118.53;6144764;23;20321;-92
2023/10/09 03:36:10;;;;;;;2.42;1.05;;;;;;;13.32;40.43;100127.44;6144605;23;20005;-94
2023/10/09 03:38:38;;;;;;;1.83;1.10;;;;;;;13.30;40.36;100135.03;6144038;23;20004;-94
2023/10/09 03:41:06;;;;;;;3.80;1.40;;;;;;;13.42;40.19;100136.66;6144761;23;20000;-93
2023/10/09 03:43:37;;;;;;;3.40;1.08;;;;;;;13.44;40.03;100143.41;6146174;23;20001;-92
2023/10/09 03:46:13;;;;;;;1.55;0.85;;;;;;;13.29;40.33;100146.09;6144195;23;20000;-93
2023/10/09 03:48:38;;;;;;;218.75;17.27;;;;;;;13.12;40.76;100149.81;6147736;23;20009;-94
2023/10/09 03:51:11;;;;;;;3.42;1.20;;;;;;;13.25;40.66;100166.63;6144752;23;20005;-93
2023/10/09 03:53:37;;;;;;;4.20;1.15;;;;;;;13.10;40.62;100149.25;6145741;23;20040;-93
2023/10/09 03:56:11;;;;;;;2.75;1.15;;;;;;;13.14;40.46;100142.25;6142610;23;20004;-89
2023/10/09 03:58:39;;;;;;;3.15;1.00;;;;;;;13.25;40.66;100170.13;6170505;23;20000;-93
2023/10/09 04:01:16;;;;;;;2.92;1.00;;;;;;;13.35;40.39;100161.25;6144023;23;20000;-93
2023/10/09 04:03:43;;;;;;;3.85;1.20;;;;;;;13.36;40.36;100167.47;6145941;23;20000;-94
2023/10/09 04:06:11;;;;;;;5.22;1.48;;;;;;;13.28;40.34;100158.78;6144103;23;20068;-93
2023/10/09 04:14:33;;;;;;;3.03;1.58;;;;;;;13.43;40.11;100168.84;6107711;23;20126;-93
2023/10/09 04:17:05;;;;;;;8.30;1.98;;;;;;;13.53;40.04;100173.47;6085481;23;20009;-93
2023/10/09 04:19:38;;;;;;;2.10;1.10;;;;;;;13.45;39.81;100163.19;6158305;23;20028;-93
2023/10/09 04:22:09;;;;;;;3.85;1.13;;;;;;;13.40;39.92;100161.25;6110761;23;20042;-92
2023/10/09 04:24:41;;;;;;;3.10;1.13;;;;;;;13.39;40.14;100181.28;6084047;23;20429;-94
2023/10/09 04:27:08;;;;;;;3.22;1.30;;;;;;;13.28;40.54;100172.31;6112018;23;20515;-94
2023/10/09 04:29:38;;;;;;;3.78;1.40;;;;;;;13.26;40.20;100168.22;6132860;23;20001;-94
2023/10/09 04:32:08;;;;;;;6.30;2.08;;;;;;;13.45;40.09;100182.13;6111357;23;20006;-93
2023/10/09 04:34:48;;;;;;;2.65;1.13;;;;;;;13.17;40.17;100167.94;6135788;23;20033;-94
2023/10/09 04:47:37;;;;;;;3.80;1.40;;;;;;;13.15;40.35;100186.31;6140719;23;20452;-93
2023/10/09 04:50:11;;;;;;;3.78;1.58;;;;;;;13.18;40.50;100206.59;6148003;23;20094;-94
2023/10/09 04:57:45;;;;;;;1.15;0.88;;;;;;;13.52;39.51;100215.94;6174361;23;20004;-94
2023/10/09 05:03:24;;;;;;;4.13;1.48;;;;;;;13.42;39.76;100210.50;6186603;23;20011;-93
2023/10/09 05:05:58;;;;;;;3.17;1.75;;;;;;;13.40;39.43;100201.03;6151060;23;20004;-92
2023/10/09 06:05:44;;;;;;;4.85;1.95;;;;;;;13.84;40.65;100271.78;6103464;23;20013;-93
2023/10/09 06:08:24;;;;;;;3.70;1.70;;;;;;;13.92;40.93;100297.50;6118649;23;20066;-94
2023/10/09 06:17:43;;;;;;;4.57;1.60;;;;;;;14.21;40.51;100316.75;6160028;23;20054;-96
2023/10/09 06:42:02;;;;;;;;;;;;;;;;;;;;;
2023/10/09 06:48:55;;;;;;;2.47;1.00;;;;;;;14.42;39.63;100346.56;6079810;23;20011;-96
2023/10/09 06:51:43;;;;;;;7.63;1.65;;;;;;;14.50;39.38;100344.13;6173824;23;20005;-93
2023/10/09 06:54:16;;;;;;;4.78;1.58;;;;;;;14.21;39.71;100314.06;6147530;23;20009;-94
2023/10/09 07:06:15;;;;;;;;;;;;;;;;;;;;;
2023/10/09 07:21:13;;;;;;;4.22;1.92;;;;;;;14.81;37.96;100324.38;6089508;23;20025;-95
2023/10/09 07:24:24;;;;;;;;;;;;;;;;;;;;;
2023/10/09 07:38:59;;;;;;;;;;;;;;;;;;;;;
2023/10/09 07:41:51;;;;;;;;;;;;;;;;;;;;;
2023/10/09 07:44:21;;;;;;;13.73;3.47;;;;;;;15.33;37.43;100328.59;6053672;23;20033;-95
2023/10/09 07:47:24;;;;;;;3.45;1.88;;;;;;;15.39;36.77;100310.41;6093200;23;20025;-93
2023/10/09 07:50:21;;;;;;;3.95;1.45;;;;;;;15.60;36.35;100330.13;6191030;23;20027;-96
2023/10/09 07:53:14;;;;;;;2.15;0.90;;;;;;;15.69;36.07;100304.03;6183210;23;19997;-95
2023/10/09 07:55:49;;;;;;;3.60;1.40;;;;;;;15.69;36.60;100298.63;6165335;23;20015;-96
2023/10/09 07:58:25;;;;;;;2.30;1.30;;;;;;;15.84;36.44;100300.47;6157393;23;20044;-94
2023/10/09 08:04:25;;;;;;;;;;;;;;;;;;;;;
2023/10/09 08:23:56;;;;;;;4.22;2.20;;;;;;;16.23;36.21;100288.75;6252543;23;20011;-94
2023/10/09 08:30:11;;;;;;;;;;;;;;;;;;;;;
2023/10/09 08:32:38;;;;;;;9.88;4.65;;;;;;;16.50;36.49;100291.81;6209466;23;20023;-92
2023/10/09 08:35:33;;;;;;;3.88;1.15;;;;;;;16.48;36.14;100294.00;6171371;23;20004;-94
2023/10/09 08:38:47;;;;;;;;;;;;;;;;;;;;;
2023/10/09 08:44:44;;;;;;;3.10;1.13;;;;;;;16.36;36.92;100285.41;6216557;23;20016;-96
2023/10/09 08:47:32;;;;;;;5.13;1.30;;;;;;;16.38;37.50;100293.28;6186002;23;20011;-93
2023/10/09 08:50:17;;;;;;;2.35;1.25;;;;;;;16.11;37.70;100272.84;6190305;23;20058;-91
2023/10/09 09:15:51;;;;;;;4.97;1.40;;;;;;;16.58;38.38;100274.09;6069579;23;20054;-94
2023/10/09 09:18:45;;;;;;;6.60;2.28;;;;;;;16.56;38.26;100246.38;6066353;23;20024;-94
2023/10/09 09:28:56;;;;;;;17.02;9.40;;;;;;;16.92;38.65;100230.50;5918513;24;20017;-93
2023/10/09 09:31:54;;;;;;;10.63;2.88;;;;;;;16.82;37.75;100206.13;5888179;24;20036;-95
2023/10/09 09:38:06;;;;;;;12.35;7.30;;;;;;;16.99;38.64;100216.53;5986657;24;20012;-91
2023/10/09 09:40:41;;;;;;;2.80;1.77;;;;;;;17.12;37.92;100223.19;5942282;24;20008;-89
2023/10/09 09:43:14;;;;;;;6.20;1.95;;;;;;;17.09;38.67;100196.56;6083285;23;20009;-92
2023/10/09 09:45:56;;;;;;;5.63;1.95;;;;;;;17.13;37.79;100198.41;6096523;23;20015;-93
2023/10/09 09:49:38;;;;;;;3.00;1.83;;;;;;;17.41;37.07;100214.09;6212770;23;20008;-90
2023/10/09 09:52:24;;;;;;;;;;;;;;;;;;;;;
2023/10/09 11:02:53;;;;;;;4.95;2.20;;;;;;;18.66;35.16;100049.81;5884983;24;20013;-92
2023/10/09 11:05:34;;;;;;;;;;;;;;;;;;;;;
2023/10/09 11:08:17;;;;;;;5.20;1.20;;;;;;;18.78;35.01;100052.84;5980328;23;20050;-89
2023/10/09 11:11:56;;;;;;;;;;;;;;;;;;;;;
2023/10/09 11:14:23;;;;;;;4.90;1.55;;;;;;;18.58;35.01;100010.41;6230306;23;20428;-94
2023/10/09 11:16:57;;;;;;;5.82;3.70;;;;;;;18.83;34.63;100042.94;6175497;23;20001;-96
2023/10/09 11:27:05;;;;;;;4.22;1.10;;;;;;;18.98;34.35;100027.00;6106176;23;20017;-95
2023/10/09 11:32:25;;;;;;;2.90;1.30;;;;;;;18.87;34.40;100001.06;6173520;23;20000;-93
2023/10/09 11:35:23;;;;;;;5.70;1.33;;;;;;;18.77;34.30;99999.34;6151490;23;20022;-96
2023/10/09 11:41:41;;;;;;;2.88;1.60;;;;;;;18.95;33.94;99997.63;6229790;22;19985;-94
2023/10/09 11:44:55;;;;;;;3.58;1.27;;;;;;;18.80;33.84;99989.81;6182575;23;20036;-92
2023/10/09 11:50:16;;;;;;;2.60;1.20;;;;;;;18.82;34.08;99973.09;6161231;23;20010;-91
2023/10/09 11:54:04;;;;;;;5.45;1.80;;;;;;;18.80;34.59;99954.31;6092986;23;20140;-94
2023/10/09 11:56:02;;;;;;;6.38;4.35;;;;;;;18.65;34.24;99943.72;6105919;23;20040;-90
2023/10/09 11:59:04;;;;;;;3.03;1.45;;;;;;;18.85;33.99;99962.38;6138399;23;20094;-92
2023/10/09 12:01:52;;;;;;;4.45;1.25;;;;;;;18.78;33.79;99961.97;6115388;23;19998;-94
2023/10/09 12:05:02;;;;;;;4.32;1.20;;;;;;;18.85;34.49;99947.94;6121930;23;20033;-95
2023/10/09 12:07:38;;;;;;;5.53;2.60;;;;;;;18.74;34.24;99928.25;6142408;23;20068;-96
2023/10/09 12:10:05;;;;;;;3.70;1.50;;;;;;;18.70;34.18;99921.81;6095011;23;20025;-93
2023/10/09 12:12:49;;;;;;;;;;;;;;;;;;;;;
2023/10/09 12:15:48;;;;;;;2.72;1.30;;;;;;;18.89;34.10;99918.91;6098811;23;20025;-93
2023/10/09 12:18:36;;;;;;;4.88;1.88;;;;;;;18.92;33.86;99896.44;6172614;23;20084;-93
2023/10/09 12:24:50;;;;;;;4.32;1.20;;;;;;;19.12;33.70;99906.84;6062069;23;20014;-91
2023/10/09 12:31:35;;;;;;;;;;;;;;;;;;;;;
2023/10/09 12:34:52;;;;;;;;;;;;;;;;;;;;;
2023/10/09 12:45:08;;;;;;;;;;;;;;;;;;;;;
2023/10/09 12:48:08;;;;;;;9.57;5.43;;;;;;;19.49;33.22;99850.16;6024943;23;20490;-94
2023/10/09 12:51:16;;;;;;;4.25;1.80;;;;;;;19.77;32.80;99871.81;6042574;23;20066;-94
2023/10/09 12:53:56;;;;;;;7.10;1.60;;;;;;;19.85;32.35;99868.28;6078786;23;20429;-93
2023/10/09 12:56:37;;;;;;;3.70;1.42;;;;;;;19.99;32.39;99870.91;6059776;23;20011;-96
2023/10/09 12:59:39;;;;;;;3.05;1.30;;;;;;;19.79;31.82;99845.75;6063565;23;20089;-94
2023/10/09 13:02:30;;;;;;;4.93;1.48;;;;;;;19.85;31.68;99838.22;6113562;23;20006;-95
2023/10/09 13:05:07;;;;;;;3.90;1.67;;;;;;;19.96;32.05;99845.00;6085639;23;20014;-96
2023/10/09 13:07:47;;;;;;;6.03;1.48;;;;;;;19.93;32.10;99845.63;6087997;23;20450;-94
2023/10/09 13:10:43;;;;;;;4.20;1.85;;;;;;;20.03;31.75;99844.53;6066390;23;20066;-96
2023/10/09 13:13:27;;;;;;;2.28;1.58;;;;;;;20.06;32.22;99835.69;6076991;23;20010;-94
2023/10/09 13:19:22;;;;;;;4.57;1.60;;;;;;;19.94;31.64;99825.41;6123526;23;20009;-94
2023/10/09 13:22:14;;;;;;;3.85;1.35;;;;;;;19.88;32.04;99834.03;6149955;23;20359;-92
2023/10/09 13:24:41;;;;;;;3.72;1.30;;;;;;;19.91;32.11;99826.03;6156786;23;20000;-95
2023/10/09 13:27:09;;;;;;;4.57;1.90;;;;;;;19.86;32.27;99808.97;6154959;23;20009;-95
2023/10/09 13:29:53;;;;;;;4.43;1.30;;;;;;;19.90;32.16;99810.75;6146337;23;20040;-94
2023/10/09 13:32:21;;;;;;;3.53;1.50;;;;;;;19.89;30.76;99802.88;6144900;23;20028;-95
2023/10/09 13:39:19;;;;;;;4.90;1.40;;;;;;;19.92;30.48;99800.31;6107765;23;20077;-92
2023/10/09 13:42:11;;;;;;;3.00;1.60;;;;;;;20.10;30.67;99809.31;6112979;23;20005;-92
2023/10/09 13:44:41;;;;;;;;;;;;;;;20.11;30.52;99802.72;6125730;23;20009;-93
2023/10/09 13:47:38;;;;;;;1.92;1.38;;;;;;;19.94;30.21;99767.16;6194986;23;19908;-92
2023/10/09 13:50:29;;;;;;;4.15;1.80;;;;;;;19.90;30.71;99771.66;6168953;23;20424;-92
2023/10/09 13:52:57;;;;;;;6.47;1.55;;;;;;;19.89;29.50;99762.69;6109916;23;20010;-93
2023/10/09 13:58:56;;;;;;;3.85;1.58;;;;;;;19.86;29.16;99765.25;6078098;23;20447;-91
2023/10/09 14:01:33;;;;;;;2.53;1.73;;;;;;;19.91;29.87;99779.56;6089168;23;20074;-93
2023/10/09 14:04:07;;;;;;;7.25;2.00;;;;;;;19.86;29.90;99768.78;6020761;23;20008;-95
2023/10/09 14:06:36;;;;;;;6.65;1.30;;;;;;;19.83;30.40;99777.63;5993784;23;20015;-92
2023/10/09 14:12:39;;;;;;;;;;;;;;;;;;;;;
2023/10/09 14:15:45;;;;;;;2.85;1.13;;;;;;;20.01;30.15;99767.50;5917270;23;20050;-93
2023/10/09 14:18:22;;;;;;;3.17;1.65;;;;;;;19.96;30.11;99762.19;6035708;23;20004;-94
2023/10/09 14:21:37;;;;;;;3.67;1.27;;;;;;;19.72;30.23;99743.53;6046772;23;20060;-93
2023/10/09 14:24:19;;;;;;;8.52;2.38;;;;;;;19.90;29.28;99763.47;6070024;23;20504;-94
2023/10/09 14:27:39;;;;;;;;;;;;;;;;;;;;;
2023/10/09 14:31:00;;;;;;;;;;;;;;;;;;;;;
2023/10/09 15:11:55;;;;;;;7.13;1.30;;;;;;;19.51;26.32;99685.97;5980418;24;20011;-92
2023/10/09 15:15:11;;;;;;;4.75;1.02;;;;;;;19.44;25.90;99713.75;6009391;23;20362;-94
2023/10/09 15:17:52;;;;;;;3.70;1.17;;;;;;;19.41;26.20;99724.53;6123704;23;20002;-94
2023/10/09 15:20:20;;;;;;;5.90;1.30;;;;;;;19.27;26.84;99709.06;6082547;23;20006;-93
2023/10/09 15:23:01;;;;;;;;;;;;;;;;;;;;;
2023/10/09 15:28:58;;;;;;;3.17;1.52;;;;;;;19.13;27.49;99694.72;6116716;23;20045;-96
2023/10/09 15:31:40;;;;;;;3.70;1.50;;;;;;;19.13;27.57;99709.22;6087504;23;20014;-94
2023/10/09 15:41:35;;;;;;;4.55;1.40;;;;;;;18.85;28.14;99727.72;6046392;23;20568;-95
2023/10/09 15:44:29;;;;;;;3.75;1.30;;;;;;;18.69;27.78;99710.13;6058397;23;20493;-96
2023/10/09 16:04:05;;;;;;;2.88;1.30;;;;;;;18.02;28.13;99727.38;5993012;24;20004;-95
2023/10/09 16:06:39;;;;;;;6.22;2.17;;;;;;;18.10;28.67;99751.97;6025849;23;20423;-93
2023/10/09 16:13:45;;;;;;;4.68;1.52;;;;;;;17.81;28.77;99711.50;6024989;23;20011;-95
2023/10/09 16:16:50;;;;;;;7.38;2.20;;;;;;;17.62;28.82;99708.94;6085804;23;20011;-94
2023/10/09 16:19:42;;;;;;;;;;;;;;;;;;;;;
2023/10/09 16:25:50;;;;;;;4.68;1.80;;;;;;;17.49;30.24;99717.94;5991405;24;20016;-94
2023/10/09 16:29:15;;;;;;;;;;;;;;;;;;;;;
2023/10/09 16:50:25;;;;;;;;;;;;;;;;;;;;;
2023/10/09 17:03:37;;;;;;;;;;;;;;;;;;;;;
2023/10/09 17:47:59;;;;;;;4.32;1.90;;;;;;;15.75;36.69;99668.41;6196860;22;20055;-95
2023/10/09 17:50:57;;;;;;;;;;;;;;;;;;;;;
2023/10/09 17:53:30;;;;;;;6.15;1.95;;;;;;;15.87;37.23;99692.38;6110014;23;20088;-94
2023/10/09 17:56:04;;;;;;;16.25;2.63;;;;;;;15.72;38.10;99676.31;6062609;23;20009;-94
2023/10/09 17:58:55;;;;;;;9.55;2.08;;;;;;;15.62;38.09;99660.97;6060175;23;20139;-94
2023/10/09 18:01:58;;;;;;;5.90;2.60;;;;;;;15.65;38.21;99665.00;6097157;23;20006;-94
2023/10/09 18:04:32;;;;;;;10.40;2.70;;;;;;;15.57;38.38;99651.00;6089490;23;20013;-95
2023/10/09 18:07:31;;;;;;;;;;;;;;;;;;;;;
2023/10/09 18:10:23;;;;;;;8.63;2.45;;;;;;;15.38;38.18;99638.53;6056577;23;20037;-95
2023/10/09 18:17:14;;;;;;;7.65;2.42;;;;;;;15.37;38.60;99648.56;6020584;23;20035;-92
2023/10/09 18:19:53;;;;;;;9.88;3.08;;;;;;;15.29;38.53;99633.78;6046099;23;20033;-94
2023/10/09 18:22:24;;;;;;;6.72;3.53;;;;;;;15.20;39.37;99646.38;6044165;23;20066;-94
2023/10/09 18:25:14;;;;;;;11.68;6.43;;;;;;;15.33;39.65;99655.69;6046830;23;20011;-94
2023/10/09 18:28:19;;;;;;;7.18;3.67;;;;;;;15.28;39.92;99651.16;6104661;23;20014;-94
2023/10/09 18:31:05;;;;;;;11.50;4.28;;;;;;;15.07;40.26;99622.69;6140149;23;20001;-94
2023/10/09 18:33:33;;;;;;;14.93;3.47;;;;;;;15.18;40.60;99645.88;6139629;23;20029;-93
2023/10/09 18:36:17;;;;;;;9.80;3.15;;;;;;;15.00;40.42;99623.03;6113432;23;20009;-94
2023/10/09 18:45:38;;;;;;;5.72;3.00;;;;;;;15.09;40.03;99661.97;6026375;23;20011;-95
2023/10/09 18:48:32;;;;;;;7.13;2.80;;;;;;;15.02;39.91;99647.97;6022760;23;20027;-94
2023/10/09 18:51:29;;;;;;;5.15;2.80;;;;;;;14.99;39.64;99637.72;6052141;23;20011;-94
2023/10/09 18:54:12;;;;;;;10.60;3.47;;;;;;;14.90;39.75;99613.16;6032674;23;20034;-93
2023/10/09 18:57:41;;;;;;;;;;;;;;;;;;;;;
2023/10/09 19:00:30;;;;;;;;;;;;;;;;;;;;;
2023/10/09 19:03:28;;;;;;;6.30;2.50;;;;;;;15.23;40.20;99605.13;6055259;23;20022;-94
2023/10/09 19:06:16;;;;;;;4.63;2.42;;;;;;;15.49;40.81;99640.81;5968230;24;20356;-95
2023/10/09 19:09:22;;;;;;;;;;;;;;;;;;;;;
2023/10/09 19:11:56;;;;;;;5.97;3.20;;;;;;;15.33;40.38;99610.38;6145506;23;20029;-94
2023/10/09 19:18:21;;;;;;;;;;;;;;;;;;;;;
2023/10/09 19:21:46;;;;;;;;;;;;;;;;;;;;;
2023/10/09 19:24:50;;;;;;;5.95;3.42;;;;;;;15.30;39.68;99607.47;6196375;23;20029;-93
2023/10/09 19:27:31;;;;;;;11.63;3.22;;;;;;;15.44;40.17;99635.47;6120150;23;20012;-93
2023/10/09 19:33:19;;;;;;;4.57;2.22;;;;;;;15.47;40.16;99625.91;6195553;23;20020;-96
2023/10/09 19:39:42;;;;;;;9.90;2.40;;;;;;;15.52;40.82;99623.94;6089147;23;20081;-94
2023/10/09 19:42:26;;;;;;;5.65;2.90;;;;;;;15.50;40.81;99620.72;6040913;23;20078;-94
2023/10/09 19:45:19;;;;;;;9.95;2.50;;;;;;;15.61;40.90;99626.00;6084043;23;20049;-93
2023/10/09 19:49:08;;;;;;;;;;;;;;;;;;;;;
2023/10/09 19:51:51;;;;;;;6.15;1.67;;;;;;;15.66;40.34;99621.25;5922154;23;20036;-94
2023/10/09 19:55:11;;;;;;;;;;;;;;;;;;;;;
2023/10/09 19:58:00;;;;;;;11.52;2.83;;;;;;;15.70;40.57;99608.72;6021335;23;20024;-94
2023/10/09 20:00:54;;;;;;;4.45;2.05;;;;;;;15.74;41.33;99615.19;5995562;23;20012;-94
2023/10/09 20:03:54;;;;;;;6.15;3.47;;;;;;;15.75;41.65;99616.81;5999116;23;20008;-95
2023/10/09 20:13:33;;;;;;;12.33;4.23;;;;;;;15.55;43.13;99596.19;5891546;24;20084;-93
2023/10/09 20:16:40;;;;;;;11.68;4.28;;;;;;;15.40;42.80;99584.78;5929931;24;20406;-94
2023/10/09 20:19:31;;;;;;;;;;;;;;;;;;;;;
2023/10/09 20:22:19;;;;;;;;;;;;;;;;;;;;;
2023/10/09 20:28:51;;;;;;;4.68;2.30;;;;;;;15.44;41.98;99561.38;5936849;24;20081;-94
2023/10/09 20:32:13;;;;;;;6.13;2.30;;;;;;;15.55;41.51;99573.69;5932028;24;20016;-94
2023/10/09 20:34:49;;;;;;;;;;;;;;;;;;;;;
2023/10/09 20:37:26;;;;;;;5.93;2.28;;;;;;;15.43;42.18;99554.34;5977266;24;20342;-94
2023/10/09 20:39:58;;;;;;;4.00;1.90;;;;;;;15.41;41.94;99540.28;5943646;24;20019;-93
2023/10/09 20:42:34;;;;;;;;;;;;;;;;;;;;;
2023/10/09 20:45:08;;;;;;;4.03;1.42;;;;;;;15.53;41.43;99532.47;5990512;23;20041;-95
2023/10/09 20:48:09;;;;;;;;;;;;;;;;;;;;;
2023/10/09 20:50:48;;;;;;;2.95;1.60;;;;;;;15.73;41.19;99553.88;6109907;23;20060;-94
2023/10/09 20:53:17;;;;;;;4.05;1.42;;;;;;;15.67;41.07;99537.94;6083940;23;20022;-94
2023/10/09 20:56:07;;;;;;;;;;;;;;;;;;;;;
2023/10/09 20:58:42;;;;;;;4.70;1.75;;;;;;;15.60;41.55;99513.88;6146029;23;20024;-93
2023/10/09 21:05:05;;;;;;;6.63;1.70;;;;;;;15.64;42.58;99519.53;6117029;23;20088;-93
2023/10/09 21:07:51;;;;;;;4.15;1.70;;;;;;;15.54;41.99;99518.59;5998857;23;20007;-95
2023/10/09 21:10:43;;;;;;;3.72;1.77;;;;;;;15.40;42.32;99495.22;6060342;23;20014;-94
2023/10/09 21:13:15;;;;;;;3.40;1.37;;;;;;;15.44;42.15;99502.50;6066132;23;20053;-94
2023/10/09 21:16:11;;;;;;;6.55;1.90;;;;;;;15.40;42.36;99487.09;6055647;23;20006;-93
2023/10/09 21:18:54;;;;;;;4.53;1.60;;;;;;;15.53;42.15;99514.28;6073206;23;20006;-94
2023/10/09 21:21:33;;;;;;;3.53;1.60;;;;;;;15.45;42.43;99495.16;6004717;23;20015;-94
2023/10/09 21:24:22;;;;;;;3.15;1.35;;;;;;;15.67;42.33;99527.09;6025597;23;20158;-94
2023/10/09 21:27:29;;;;;;;6.72;1.55;;;;;;;15.48;42.61;99494.56;6050319;23;20014;-95
2023/10/09 21:31:09;;;;;;;;;;;;;;;;;;;;;
2023/10/09 21:34:03;;;;;;;7.18;1.40;;;;;;;15.35;42.46;99488.00;6010414;23;20042;-94
2023/10/09 21:37:00;;;;;;;2.78;1.60;;;;;;;15.48;42.38;99511.66;6031142;23;20007;-94
2023/10/09 21:39:56;;;;;;;5.35;1.75;;;;;;;15.42;41.86;99493.84;6028975;23;20033;-94
2023/10/09 21:42:28;;;;;;;4.43;1.80;;;;;;;15.66;41.68;99517.31;6074472;23;20167;-94
2023/10/09 21:45:26;;;;;;;;;;;;;;;15.61;42.13;99522.84;6075712;23;20013;-94
2023/10/09 21:48:32;;;;;;;;;;;;;;;;;;;;;
2023/10/09 21:51:27;;;;;;;5.25;2.10;;;;;;;15.36;42.55;99486.91;5958803;24;20048;-95
2023/10/09 21:54:03;;;;;;;;;;;;;;;;;;;;;
2023/10/09 22:03:20;;;;;;;;;;;;;;;;;;;;;
2023/10/09 22:06:03;;;;;;;7.20;2.85;;;;;;;15.62;43.80;99540.72;5986954;23;20026;-94
2023/10/09 22:08:47;;;;;;;;;;;;;;;;;;;;;
2023/10/09 22:11:29;;;;;;;6.78;2.60;;;;;;;15.38;44.46;99514.53;6050335;23;20026;-93
2023/10/09 22:14:01;;;;;;;2.95;2.10;;;;;;;15.38;44.44;99513.72;6034109;23;20017;-95
2023/10/09 22:16:45;;;;;;;5.10;1.80;;;;;;;15.36;44.30;99528.41;6053270;23;20014;-94
2023/10/09 22:19:13;;;;;;;8.07;2.42;;;;;;;15.34;43.76;99510.81;6033501;23;20077;-93
2023/10/09 22:22:22;;;;;;;7.47;1.95;;;;;;;15.38;43.70;99524.56;6030991;23;20458;-93